sensor_id;sensor_type;location;lat;lon;timestamp;temperature;humidity
47174;DHT22;36730;49.036;9.094;2024-02-28T00:01:01;25.80;55.70
47174;DHT22;36730;49.036;9.094;2024-02-28T00:03:27;25.80;56.10
47174;DHT22;36730;49.036;9.094;2024-02-28T00:05:52;25.80;56.10
47174;DHT22;36730;49.036;9.094;2024-02-28T00:08:18;25.80;56.40
47174;DHT22;36730;49.036;9.094;2024-02-28T00:10:45;25.80;56.20
47174;DHT22;36730;49.036;9.094;2024-02-28T00:13:11;25.80;56.00
47174;DHT22;36730;49.036;9.094;2024-02-28T00:15:36;25.80;56.70
47174;DHT22;36730;49.036;9.094;2024-02-28T00:18:02;25.80;55.70
47174;DHT22;36730;49.036;9.094;2024-02-28T00:20:28;25.80;55.50
47174;DHT22;36730;49.036;9.094;2024-02-28T00:22:54;25.80;56.10
47174;DHT22;36730;49.036;9.094;2024-02-28T00:25:20;25.80;55.90
47174;DHT22;36730;49.036;9.094;2024-02-28T00:27:45;25.80;56.00
47174;DHT22;36730;49.036;9.094;2024-02-28T00:30:11;25.80;56.10
47174;DHT22;36730;49.036;9.094;2024-02-28T00:32:37;25.80;56.20
47174;DHT22;36730;49.036;9.094;2024-02-28T00:35:02;25.70;55.90
47174;DHT22;36730;49.036;9.094;2024-02-28T00:37:29;25.80;56.00
47174;DHT22;36730;49.036;9.094;2024-02-28T00:39:54;25.80;55.80
47174;DHT22;36730;49.036;9.094;2024-02-28T00:42:20;25.70;55.40
47174;DHT22;36730;49.036;9.094;2024-02-28T00:44:45;25.70;55.50
47174;DHT22;36730;49.036;9.094;2024-02-28T00:47:11;25.70;56.00
47174;DHT22;36730;49.036;9.094;2024-02-28T00:49:37;25.70;56.10
47174;DHT22;36730;49.036;9.094;2024-02-28T00:52:02;25.70;55.80
47174;DHT22;36730;49.036;9.094;2024-02-28T00:54:28;25.70;55.80
47174;DHT22;36730;49.036;9.094;2024-02-28T00:56:53;25.70;55.60
47174;DHT22;36730;49.036;9.094;2024-02-28T00:59:19;25.70;55.60
47174;DHT22;36730;49.036;9.094;2024-02-28T01:01:44;25.70;55.40
47174;DHT22;36730;49.036;9.094;2024-02-28T01:04:10;25.70;55.40
47174;DHT22;36730;49.036;9.094;2024-02-28T01:06:35;25.70;55.50
47174;DHT22;36730;49.036;9.094;2024-02-28T01:09:00;25.70;56.00
47174;DHT22;36730;49.036;9.094;2024-02-28T01:11:26;25.70;55.80
47174;DHT22;36730;49.036;9.094;2024-02-28T01:13:51;25.70;55.80
47174;DHT22;36730;49.036;9.094;2024-02-28T01:16:17;25.70;55.90
47174;DHT22;36730;49.036;9.094;2024-02-28T01:18:42;25.60;55.70
47174;DHT22;36730;49.036;9.094;2024-02-28T01:21:08;25.60;55.70
47174;DHT22;36730;49.036;9.094;2024-02-28T01:23:33;25.60;55.80
47174;DHT22;36730;49.036;9.094;2024-02-28T01:25:59;25.60;55.80
47174;DHT22;36730;49.036;9.094;2024-02-28T01:28:24;25.60;55.90
47174;DHT22;36730;49.036;9.094;2024-02-28T01:30:51;25.70;56.30
47174;DHT22;36730;49.036;9.094;2024-02-28T01:33:16;25.60;55.60
47174;DHT22;36730;49.036;9.094;2024-02-28T01:35:42;25.60;55.60
47174;DHT22;36730;49.036;9.094;2024-02-28T01:38:07;25.60;55.40
47174;DHT22;36730;49.036;9.094;2024-02-28T01:40:32;25.60;55.30
47174;DHT22;36730;49.036;9.094;2024-02-28T01:43:07;25.60;55.60
47174;DHT22;36730;49.036;9.094;2024-02-28T01:45:33;25.60;55.80
47174;DHT22;36730;49.036;9.094;2024-02-28T01:47:58;25.60;56.00
47174;DHT22;36730;49.036;9.094;2024-02-28T01:50:24;25.60;55.80
47174;DHT22;36730;49.036;9.094;2024-02-28T01:52:50;25.60;55.50
47174;DHT22;36730;49.036;9.094;2024-02-28T01:55:15;25.60;55.40
47174;DHT22;36730;49.036;9.094;2024-02-28T01:57:41;25.60;55.40
47174;DHT22;36730;49.036;9.094;2024-02-28T02:00:06;25.60;55.30
47174;DHT22;36730;49.036;9.094;2024-02-28T02:02:33;25.60;55.50
47174;DHT22;36730;49.036;9.094;2024-02-28T02:04:59;25.60;55.70
47174;DHT22;36730;49.036;9.094;2024-02-28T02:07:25;25.60;55.60
47174;DHT22;36730;49.036;9.094;2024-02-28T02:09:51;25.60;55.70
47174;DHT22;36730;49.036;9.094;2024-02-28T02:12:17;25.60;55.50
47174;DHT22;36730;49.036;9.094;2024-02-28T02:14:47;25.60;55.20
47174;DHT22;36730;49.036;9.094;2024-02-28T02:17:12;25.60;55.30
47174;DHT22;36730;49.036;9.094;2024-02-28T02:19:38;25.60;55.30
47174;DHT22;36730;49.036;9.094;2024-02-28T02:22:04;25.60;55.70
47174;DHT22;36730;49.036;9.094;2024-02-28T02:24:30;25.60;55.50
47174;DHT22;36730;49.036;9.094;2024-02-28T02:26:59;25.60;55.50
47174;DHT22;36730;49.036;9.094;2024-02-28T02:29:25;25.60;55.70
47174;DHT22;36730;49.036;9.094;2024-02-28T02:31:50;25.60;55.70
47174;DHT22;36730;49.036;9.094;2024-02-28T02:34:16;25.60;55.50
47174;DHT22;36730;49.036;9.094;2024-02-28T02:36:41;25.60;55.40
47174;DHT22;36730;49.036;9.094;2024-02-28T02:39:06;25.60;55.40
47174;DHT22;36730;49.036;9.094;2024-02-28T02:41:33;25.60;55.10
47174;DHT22;36730;49.036;9.094;2024-02-28T02:43:59;25.60;55.20
47174;DHT22;36730;49.036;9.094;2024-02-28T02:46:24;25.60;55.60
47174;DHT22;36730;49.036;9.094;2024-02-28T02:48:50;25.60;55.80
47174;DHT22;36730;49.036;9.094;2024-02-28T02:51:15;25.60;55.60
47174;DHT22;36730;49.036;9.094;2024-02-28T02:53:44;25.50;55.20
47174;DHT22;36730;49.036;9.094;2024-02-28T02:56:10;25.60;55.20
47174;DHT22;36730;49.036;9.094;2024-02-28T02:58:35;25.60;55.10
47174;DHT22;36730;49.036;9.094;2024-02-28T03:01:01;25.60;55.50
47174;DHT22;36730;49.036;9.094;2024-02-28T03:03:26;25.50;55.60
47174;DHT22;36730;49.036;9.094;2024-02-28T03:05:52;25.50;55.30
47174;DHT22;36730;49.036;9.094;2024-02-28T03:08:17;25.60;55.50
47174;DHT22;36730;49.036;9.094;2024-02-28T03:10:43;25.60;55.30
47174;DHT22;36730;49.036;9.094;2024-02-28T03:13:08;25.50;55.30
47174;DHT22;36730;49.036;9.094;2024-02-28T03:15:34;25.50;55.00
47174;DHT22;36730;49.036;9.094;2024-02-28T03:17:59;25.50;55.00
47174;DHT22;36730;49.036;9.094;2024-02-28T03:20:25;25.50;55.20
47174;DHT22;36730;49.036;9.094;2024-02-28T03:22:51;25.50;55.60
47174;DHT22;36730;49.036;9.094;2024-02-28T03:25:16;25.50;55.40
47174;DHT22;36730;49.036;9.094;2024-02-28T03:27:42;25.50;55.50
47174;DHT22;36730;49.036;9.094;2024-02-28T03:30:08;25.50;55.50
47174;DHT22;36730;49.036;9.094;2024-02-28T03:32:33;25.50;55.20
47174;DHT22;36730;49.036;9.094;2024-02-28T03:34:59;25.50;55.20
47174;DHT22;36730;49.036;9.094;2024-02-28T03:37:24;25.50;55.00
47174;DHT22;36730;49.036;9.094;2024-02-28T03:39:50;25.50;55.00
47174;DHT22;36730;49.036;9.094;2024-02-28T03:42:15;25.50;55.60
47174;DHT22;36730;49.036;9.094;2024-02-28T03:44:40;25.50;55.70
47174;DHT22;36730;49.036;9.094;2024-02-28T03:47:06;25.50;55.50
47174;DHT22;36730;49.036;9.094;2024-02-28T03:49:31;25.50;55.40
47174;DHT22;36730;49.036;9.094;2024-02-28T03:51:57;25.50;54.90
47174;DHT22;36730;49.036;9.094;2024-02-28T03:54:22;25.60;55.00
47174;DHT22;36730;49.036;9.094;2024-02-28T03:56:48;25.60;55.10
47174;DHT22;36730;49.036;9.094;2024-02-28T03:59:13;25.60;55.00
47174;DHT22;36730;49.036;9.094;2024-02-28T04:01:39;25.60;54.80
47174;DHT22;36730;49.036;9.094;2024-02-28T04:04:04;25.60;54.90
47174;DHT22;36730;49.036;9.094;2024-02-28T04:06:30;25.60;55.20
47174;DHT22;36730;49.036;9.094;2024-02-28T04:08:56;25.60;55.00
47174;DHT22;36730;49.036;9.094;2024-02-28T04:11:21;25.60;54.90
47174;DHT22;36730;49.036;9.094;2024-02-28T04:13:47;25.60;54.70
47174;DHT22;36730;49.036;9.094;2024-02-28T04:16:12;25.70;54.50
47174;DHT22;36730;49.036;9.094;2024-02-28T04:18:38;25.70;54.50
47174;DHT22;36730;49.036;9.094;2024-02-28T04:21:03;25.70;54.50
47174;DHT22;36730;49.036;9.094;2024-02-28T04:23:29;25.70;54.40
47174;DHT22;36730;49.036;9.094;2024-02-28T04:25:54;25.70;54.30
47174;DHT22;36730;49.036;9.094;2024-02-28T04:28:20;25.70;54.20
47174;DHT22;36730;49.036;9.094;2024-02-28T04:30:45;25.70;54.30
47174;DHT22;36730;49.036;9.094;2024-02-28T04:33:11;25.70;54.30
47174;DHT22;36730;49.036;9.094;2024-02-28T04:35:36;25.70;54.30
47174;DHT22;36730;49.036;9.094;2024-02-28T04:38:01;25.80;54.60
47174;DHT22;36730;49.036;9.094;2024-02-28T04:40:27;25.80;55.80
47174;DHT22;36730;49.036;9.094;2024-02-28T04:42:52;25.80;57.60
47174;DHT22;36730;49.036;9.094;2024-02-28T04:45:18;25.80;56.50
47174;DHT22;36730;49.036;9.094;2024-02-28T04:47:43;25.80;55.40
47174;DHT22;36730;49.036;9.094;2024-02-28T04:50:09;25.80;55.00
47174;DHT22;36730;49.036;9.094;2024-02-28T04:52:35;25.80;54.90
47174;DHT22;36730;49.036;9.094;2024-02-28T04:55:00;25.90;54.70
47174;DHT22;36730;49.036;9.094;2024-02-28T04:57:26;25.90;54.80
47174;DHT22;36730;49.036;9.094;2024-02-28T04:59:52;25.90;55.00
47174;DHT22;36730;49.036;9.094;2024-02-28T05:02:18;26.00;55.00
47174;DHT22;36730;49.036;9.094;2024-02-28T05:04:43;26.00;54.70
47174;DHT22;36730;49.036;9.094;2024-02-28T05:07:09;26.00;54.90
47174;DHT22;36730;49.036;9.094;2024-02-28T05:09:34;26.00;54.60
47174;DHT22;36730;49.036;9.094;2024-02-28T05:12:00;26.00;54.50
47174;DHT22;36730;49.036;9.094;2024-02-28T05:14:26;26.00;54.10
47174;DHT22;36730;49.036;9.094;2024-02-28T05:16:51;26.10;54.20
47174;DHT22;36730;49.036;9.094;2024-02-28T05:19:17;26.10;54.20
47174;DHT22;36730;49.036;9.094;2024-02-28T05:21:45;26.10;54.00
47174;DHT22;36730;49.036;9.094;2024-02-28T05:24:11;26.10;54.20
47174;DHT22;36730;49.036;9.094;2024-02-28T05:26:37;26.10;55.20
47174;DHT22;36730;49.036;9.094;2024-02-28T05:29:03;26.20;54.80
47174;DHT22;36730;49.036;9.094;2024-02-28T05:31:29;26.20;54.70
47174;DHT22;36730;49.036;9.094;2024-02-28T05:33:55;26.20;54.10
47174;DHT22;36730;49.036;9.094;2024-02-28T05:36:26;26.20;54.20
47174;DHT22;36730;49.036;9.094;2024-02-28T05:38:52;26.20;54.80
47174;DHT22;36730;49.036;9.094;2024-02-28T05:41:17;26.20;54.70
47174;DHT22;36730;49.036;9.094;2024-02-28T05:43:43;26.20;54.50
47174;DHT22;36730;49.036;9.094;2024-02-28T05:46:09;26.20;54.10
47174;DHT22;36730;49.036;9.094;2024-02-28T05:48:34;26.30;54.30
47174;DHT22;36730;49.036;9.094;2024-02-28T05:51:00;26.30;54.10
47174;DHT22;36730;49.036;9.094;2024-02-28T05:53:25;26.30;54.30
47174;DHT22;36730;49.036;9.094;2024-02-28T05:55:52;26.30;54.30
47174;DHT22;36730;49.036;9.094;2024-02-28T05:58:19;26.30;54.30
47174;DHT22;36730;49.036;9.094;2024-02-28T06:00:44;26.30;54.10
47174;DHT22;36730;49.036;9.094;2024-02-28T06:03:10;26.30;54.30
47174;DHT22;36730;49.036;9.094;2024-02-28T06:05:35;26.40;54.40
47174;DHT22;36730;49.036;9.094;2024-02-28T06:08:01;26.40;54.80
47174;DHT22;36730;49.036;9.094;2024-02-28T06:10:26;26.40;54.50
47174;DHT22;36730;49.036;9.094;2024-02-28T06:12:51;26.40;55.90
47174;DHT22;36730;49.036;9.094;2024-02-28T06:15:17;26.40;54.90
47174;DHT22;36730;49.036;9.094;2024-02-28T06:17:42;26.40;55.00
47174;DHT22;36730;49.036;9.094;2024-02-28T06:20:08;26.40;55.10
47174;DHT22;36730;49.036;9.094;2024-02-28T06:22:33;26.50;54.50
47174;DHT22;36730;49.036;9.094;2024-02-28T06:24:59;26.50;53.90
47174;DHT22;36730;49.036;9.094;2024-02-28T06:27:24;26.40;53.00
47174;DHT22;36730;49.036;9.094;2024-02-28T06:29:52;26.30;52.90
47174;DHT22;36730;49.036;9.094;2024-02-28T06:32:17;26.30;53.10
47174;DHT22;36730;49.036;9.094;2024-02-28T06:34:42;26.20;52.80
47174;DHT22;36730;49.036;9.094;2024-02-28T06:37:08;26.20;53.50
47174;DHT22;36730;49.036;9.094;2024-02-28T06:39:33;26.20;53.00
47174;DHT22;36730;49.036;9.094;2024-02-28T06:41:59;26.20;53.10
47174;DHT22;36730;49.036;9.094;2024-02-28T06:44:24;26.20;53.30
47174;DHT22;36730;49.036;9.094;2024-02-28T06:46:50;26.10;52.50
47174;DHT22;36730;49.036;9.094;2024-02-28T06:49:15;26.10;52.70
47174;DHT22;36730;49.036;9.094;2024-02-28T06:51:42;26.20;52.80
47174;DHT22;36730;49.036;9.094;2024-02-28T06:54:08;26.20;52.90
47174;DHT22;36730;49.036;9.094;2024-02-28T06:56:33;26.10;53.10
47174;DHT22;36730;49.036;9.094;2024-02-28T06:58:59;26.10;53.00
47174;DHT22;36730;49.036;9.094;2024-02-28T07:01:24;26.10;52.90
47174;DHT22;36730;49.036;9.094;2024-02-28T07:03:50;26.10;53.60
47174;DHT22;36730;49.036;9.094;2024-02-28T07:06:15;26.00;52.90
47174;DHT22;36730;49.036;9.094;2024-02-28T07:08:41;26.00;52.90
47174;DHT22;36730;49.036;9.094;2024-02-28T07:11:12;25.90;52.90
47174;DHT22;36730;49.036;9.094;2024-02-28T07:13:38;25.90;52.40
47174;DHT22;36730;49.036;9.094;2024-02-28T07:16:03;25.80;52.50
47174;DHT22;36730;49.036;9.094;2024-02-28T07:18:29;25.80;52.60
47174;DHT22;36730;49.036;9.094;2024-02-28T07:20:55;25.80;52.50
47174;DHT22;36730;49.036;9.094;2024-02-28T07:23:20;25.80;52.50
47174;DHT22;36730;49.036;9.094;2024-02-28T07:25:46;25.80;52.80
47174;DHT22;36730;49.036;9.094;2024-02-28T07:28:11;25.80;52.60
47174;DHT22;36730;49.036;9.094;2024-02-28T07:30:37;25.90;52.50
47174;DHT22;36730;49.036;9.094;2024-02-28T07:33:04;25.90;52.90
47174;DHT22;36730;49.036;9.094;2024-02-28T07:35:30;25.90;55.80
47174;DHT22;36730;49.036;9.094;2024-02-28T07:37:55;25.90;53.40
47174;DHT22;36730;49.036;9.094;2024-02-28T07:40:21;25.80;52.90
47174;DHT22;36730;49.036;9.094;2024-02-28T07:42:46;25.80;53.00
47174;DHT22;36730;49.036;9.094;2024-02-28T07:45:11;25.80;54.20
47174;DHT22;36730;49.036;9.094;2024-02-28T07:47:37;25.80;55.60
47174;DHT22;36730;49.036;9.094;2024-02-28T07:50:03;25.80;53.30
47174;DHT22;36730;49.036;9.094;2024-02-28T07:52:28;25.80;53.20
47174;DHT22;36730;49.036;9.094;2024-02-28T07:54:54;25.80;53.30
47174;DHT22;36730;49.036;9.094;2024-02-28T07:57:19;25.80;54.00
47174;DHT22;36730;49.036;9.094;2024-02-28T07:59:45;25.80;52.70
47174;DHT22;36730;49.036;9.094;2024-02-28T08:02:10;25.80;52.60
47174;DHT22;36730;49.036;9.094;2024-02-28T08:04:39;25.80;52.60
47174;DHT22;36730;49.036;9.094;2024-02-28T08:07:04;25.80;53.10
47174;DHT22;36730;49.036;9.094;2024-02-28T08:09:30;25.80;53.40
47174;DHT22;36730;49.036;9.094;2024-02-28T08:11:55;25.70;56.90
47174;DHT22;36730;49.036;9.094;2024-02-28T08:14:23;25.60;53.30
47174;DHT22;36730;49.036;9.094;2024-02-28T08:16:48;25.60;53.10
47174;DHT22;36730;49.036;9.094;2024-02-28T08:19:14;25.60;53.80
47174;DHT22;36730;49.036;9.094;2024-02-28T08:21:39;25.60;52.20
47174;DHT22;36730;49.036;9.094;2024-02-28T08:24:05;25.60;53.20
47174;DHT22;36730;49.036;9.094;2024-02-28T08:26:31;25.60;53.50
47174;DHT22;36730;49.036;9.094;2024-02-28T08:28:56;25.60;52.70
47174;DHT22;36730;49.036;9.094;2024-02-28T08:31:22;25.50;52.60
47174;DHT22;36730;49.036;9.094;2024-02-28T08:33:47;25.50;53.60
47174;DHT22;36730;49.036;9.094;2024-02-28T08:36:13;25.40;54.90
47174;DHT22;36730;49.036;9.094;2024-02-28T08:38:39;25.30;54.50
47174;DHT22;36730;49.036;9.094;2024-02-28T08:41:05;25.30;54.20
47174;DHT22;36730;49.036;9.094;2024-02-28T08:43:30;25.20;52.90
47174;DHT22;36730;49.036;9.094;2024-02-28T08:45:56;25.10;53.20
47174;DHT22;36730;49.036;9.094;2024-02-28T08:48:21;25.10;53.10
47174;DHT22;36730;49.036;9.094;2024-02-28T08:50:48;25.00;53.10
47174;DHT22;36730;49.036;9.094;2024-02-28T08:53:14;25.00;53.70
47174;DHT22;36730;49.036;9.094;2024-02-28T08:55:39;25.00;52.80
47174;DHT22;36730;49.036;9.094;2024-02-28T08:58:04;25.00;52.80
47174;DHT22;36730;49.036;9.094;2024-02-28T09:00:30;24.90;52.50
47174;DHT22;36730;49.036;9.094;2024-02-28T09:02:55;24.80;51.90
47174;DHT22;36730;49.036;9.094;2024-02-28T09:05:21;24.80;51.90
47174;DHT22;36730;49.036;9.094;2024-02-28T09:07:47;24.80;52.90
47174;DHT22;36730;49.036;9.094;2024-02-28T09:10:16;24.80;51.70
47174;DHT22;36730;49.036;9.094;2024-02-28T09:12:46;24.80;52.20
47174;DHT22;36730;49.036;9.094;2024-02-28T09:15:12;24.70;51.90
47174;DHT22;36730;49.036;9.094;2024-02-28T09:17:37;24.70;52.80
47174;DHT22;36730;49.036;9.094;2024-02-28T09:20:03;24.70;51.90
47174;DHT22;36730;49.036;9.094;2024-02-28T09:22:29;24.70;52.90
47174;DHT22;36730;49.036;9.094;2024-02-28T09:24:55;24.60;52.30
47174;DHT22;36730;49.036;9.094;2024-02-28T09:27:20;24.60;54.10
47174;DHT22;36730;49.036;9.094;2024-02-28T09:29:45;24.70;52.80
47174;DHT22;36730;49.036;9.094;2024-02-28T09:32:11;24.70;52.90
47174;DHT22;36730;49.036;9.094;2024-02-28T09:34:37;24.60;52.60
47174;DHT22;36730;49.036;9.094;2024-02-28T09:37:02;24.70;52.20
47174;DHT22;36730;49.036;9.094;2024-02-28T09:39:29;24.70;53.70
47174;DHT22;36730;49.036;9.094;2024-02-28T09:41:54;24.70;52.50
47174;DHT22;36730;49.036;9.094;2024-02-28T09:44:20;24.70;52.90
47174;DHT22;36730;49.036;9.094;2024-02-28T09:46:46;24.80;52.70
47174;DHT22;36730;49.036;9.094;2024-02-28T09:49:14;24.80;52.00
47174;DHT22;36730;49.036;9.094;2024-02-28T09:51:40;24.90;51.90
47174;DHT22;36730;49.036;9.094;2024-02-28T09:54:06;24.90;52.00
47174;DHT22;36730;49.036;9.094;2024-02-28T09:56:32;25.00;51.90
47174;DHT22;36730;49.036;9.094;2024-02-28T09:58:58;25.00;51.80
47174;DHT22;36730;49.036;9.094;2024-02-28T10:01:25;25.00;52.50
47174;DHT22;36730;49.036;9.094;2024-02-28T10:03:51;25.10;51.70
47174;DHT22;36730;49.036;9.094;2024-02-28T10:06:20;25.10;52.90
47174;DHT22;36730;49.036;9.094;2024-02-28T10:08:45;25.10;52.00
47174;DHT22;36730;49.036;9.094;2024-02-28T10:11:23;25.10;52.00
47174;DHT22;36730;49.036;9.094;2024-02-28T10:13:49;25.20;52.10
47174;DHT22;36730;49.036;9.094;2024-02-28T10:16:15;25.20;51.70
47174;DHT22;36730;49.036;9.094;2024-02-28T10:18:43;25.20;51.70
47174;DHT22;36730;49.036;9.094;2024-02-28T10:21:09;25.20;51.60
47174;DHT22;36730;49.036;9.094;2024-02-28T10:23:36;25.20;51.70
47174;DHT22;36730;49.036;9.094;2024-02-28T10:26:01;25.30;52.10
47174;DHT22;36730;49.036;9.094;2024-02-28T10:28:28;25.20;51.60
47174;DHT22;36730;49.036;9.094;2024-02-28T10:30:54;25.30;51.70
47174;DHT22;36730;49.036;9.094;2024-02-28T10:33:19;25.30;50.70
47174;DHT22;36730;49.036;9.094;2024-02-28T10:35:45;25.30;50.40
47174;DHT22;36730;49.036;9.094;2024-02-28T10:38:11;25.30;50.70
47174;DHT22;36730;49.036;9.094;2024-02-28T10:40:37;25.30;50.50
47174;DHT22;36730;49.036;9.094;2024-02-28T10:43:02;25.20;50.50
47174;DHT22;36730;49.036;9.094;2024-02-28T10:45:29;25.20;50.30
47174;DHT22;36730;49.036;9.094;2024-02-28T10:47:56;25.20;50.50
47174;DHT22;36730;49.036;9.094;2024-02-28T10:50:22;25.20;51.70
47174;DHT22;36730;49.036;9.094;2024-02-28T10:52:48;25.20;51.10
47174;DHT22;36730;49.036;9.094;2024-02-28T10:55:22;25.20;51.30
47174;DHT22;36730;49.036;9.094;2024-02-28T10:57:58;25.10;51.60
47174;DHT22;36730;49.036;9.094;2024-02-28T11:00:24;25.10;50.80
47174;DHT22;36730;49.036;9.094;2024-02-28T11:02:50;25.10;50.60
47174;DHT22;36730;49.036;9.094;2024-02-28T11:05:15;25.20;51.20
47174;DHT22;36730;49.036;9.094;2024-02-28T11:07:41;25.20;51.10
47174;DHT22;36730;49.036;9.094;2024-02-28T11:10:08;25.10;51.40
47174;DHT22;36730;49.036;9.094;2024-02-28T11:12:33;25.10;51.10
47174;DHT22;36730;49.036;9.094;2024-02-28T11:15:02;25.10;52.40
47174;DHT22;36730;49.036;9.094;2024-02-28T11:17:31;25.10;51.30
47174;DHT22;36730;49.036;9.094;2024-02-28T11:19:57;25.10;50.80
47174;DHT22;36730;49.036;9.094;2024-02-28T11:22:22;25.10;50.00
47174;DHT22;36730;49.036;9.094;2024-02-28T11:24:48;25.10;50.80
47174;DHT22;36730;49.036;9.094;2024-02-28T11:27:15;25.10;50.40
47174;DHT22;36730;49.036;9.094;2024-02-28T11:29:40;25.10;50.50
47174;DHT22;36730;49.036;9.094;2024-02-28T11:32:06;25.10;50.50
47174;DHT22;36730;49.036;9.094;2024-02-28T11:34:31;25.10;51.20
47174;DHT22;36730;49.036;9.094;2024-02-28T11:36:57;25.10;50.10
47174;DHT22;36730;49.036;9.094;2024-02-28T11:39:23;25.10;50.70
47174;DHT22;36730;49.036;9.094;2024-02-28T11:41:52;25.10;50.10
47174;DHT22;36730;49.036;9.094;2024-02-28T11:44:18;25.10;49.80
47174;DHT22;36730;49.036;9.094;2024-02-28T11:46:44;25.10;51.00
47174;DHT22;36730;49.036;9.094;2024-02-28T11:49:10;25.00;50.00
47174;DHT22;36730;49.036;9.094;2024-02-28T11:51:36;25.00;50.00
47174;DHT22;36730;49.036;9.094;2024-02-28T11:54:02;25.00;50.70
47174;DHT22;36730;49.036;9.094;2024-02-28T11:56:27;25.00;50.10
47174;DHT22;36730;49.036;9.094;2024-02-28T11:58:53;25.10;51.20
47174;DHT22;36730;49.036;9.094;2024-02-28T12:01:19;25.10;50.20
47174;DHT22;36730;49.036;9.094;2024-02-28T12:03:45;25.10;50.00
47174;DHT22;36730;49.036;9.094;2024-02-28T12:06:11;25.00;49.80
47174;DHT22;36730;49.036;9.094;2024-02-28T12:08:36;25.10;49.70
47174;DHT22;36730;49.036;9.094;2024-02-28T12:11:08;25.10;49.90
47174;DHT22;36730;49.036;9.094;2024-02-28T12:13:34;25.10;49.90
47174;DHT22;36730;49.036;9.094;2024-02-28T12:16:00;25.10;50.50
47174;DHT22;36730;49.036;9.094;2024-02-28T12:18:29;25.00;51.00
47174;DHT22;36730;49.036;9.094;2024-02-28T12:20:54;24.90;51.30
47174;DHT22;36730;49.036;9.094;2024-02-28T12:23:20;24.90;51.20
47174;DHT22;36730;49.036;9.094;2024-02-28T12:25:46;24.90;51.20
47174;DHT22;36730;49.036;9.094;2024-02-28T12:28:11;24.80;51.00
47174;DHT22;36730;49.036;9.094;2024-02-28T12:30:41;24.90;51.00
47174;DHT22;36730;49.036;9.094;2024-02-28T12:33:10;24.90;51.00
47174;DHT22;36730;49.036;9.094;2024-02-28T12:35:36;24.80;50.70
47174;DHT22;36730;49.036;9.094;2024-02-28T12:38:02;24.80;50.70
47174;DHT22;36730;49.036;9.094;2024-02-28T12:40:28;24.80;51.40
47174;DHT22;36730;49.036;9.094;2024-02-28T12:42:53;24.80;51.40
47174;DHT22;36730;49.036;9.094;2024-02-28T12:45:19;24.80;51.00
47174;DHT22;36730;49.036;9.094;2024-02-28T12:47:44;24.80;51.70
47174;DHT22;36730;49.036;9.094;2024-02-28T12:50:09;24.80;51.30
47174;DHT22;36730;49.036;9.094;2024-02-28T12:52:36;24.80;50.70
47174;DHT22;36730;49.036;9.094;2024-02-28T12:55:01;24.90;50.70
47174;DHT22;36730;49.036;9.094;2024-02-28T12:57:27;25.00;50.70
47174;DHT22;36730;49.036;9.094;2024-02-28T12:59:53;25.10;50.40
47174;DHT22;36730;49.036;9.094;2024-02-28T13:02:19;25.10;51.10
47174;DHT22;36730;49.036;9.094;2024-02-28T13:04:45;25.20;50.50
47174;DHT22;36730;49.036;9.094;2024-02-28T13:07:10;25.30;51.50
47174;DHT22;36730;49.036;9.094;2024-02-28T13:09:36;25.30;52.50
47174;DHT22;36730;49.036;9.094;2024-02-28T13:12:03;25.30;51.30
47174;DHT22;36730;49.036;9.094;2024-02-28T13:14:30;25.30;52.00
47174;DHT22;36730;49.036;9.094;2024-02-28T13:16:55;25.30;51.00
47174;DHT22;36730;49.036;9.094;2024-02-28T13:19:21;25.40;52.00
47174;DHT22;36730;49.036;9.094;2024-02-28T13:21:46;25.40;51.00
47174;DHT22;36730;49.036;9.094;2024-02-28T13:24:12;25.30;50.20
47174;DHT22;36730;49.036;9.094;2024-02-28T13:26:40;25.30;50.20
47174;DHT22;36730;49.036;9.094;2024-02-28T13:29:06;25.30;50.20
47174;DHT22;36730;49.036;9.094;2024-02-28T13:31:32;25.30;50.30
47174;DHT22;36730;49.036;9.094;2024-02-28T13:33:58;25.30;49.90
47174;DHT22;36730;49.036;9.094;2024-02-28T13:36:23;25.30;49.90
47174;DHT22;36730;49.036;9.094;2024-02-28T13:38:50;25.20;49.60
47174;DHT22;36730;49.036;9.094;2024-02-28T13:41:15;25.20;49.40
47174;DHT22;36730;49.036;9.094;2024-02-28T13:43:41;25.30;49.80
47174;DHT22;36730;49.036;9.094;2024-02-28T13:46:07;25.30;50.50
47174;DHT22;36730;49.036;9.094;2024-02-28T13:48:32;25.30;50.20
47174;DHT22;36730;49.036;9.094;2024-02-28T13:50:59;25.30;50.60
47174;DHT22;36730;49.036;9.094;2024-02-28T13:53:24;25.20;49.50
47174;DHT22;36730;49.036;9.094;2024-02-28T13:55:50;25.20;49.30
47174;DHT22;36730;49.036;9.094;2024-02-28T13:58:16;25.30;49.00
47174;DHT22;36730;49.036;9.094;2024-02-28T14:00:44;25.20;48.90
47174;DHT22;36730;49.036;9.094;2024-02-28T14:03:10;25.20;49.00
47174;DHT22;36730;49.036;9.094;2024-02-28T14:05:36;25.20;48.90
47174;DHT22;36730;49.036;9.094;2024-02-28T14:08:02;25.20;48.80
47174;DHT22;36730;49.036;9.094;2024-02-28T14:10:29;25.20;48.70
47174;DHT22;36730;49.036;9.094;2024-02-28T14:12:55;25.20;49.00
47174;DHT22;36730;49.036;9.094;2024-02-28T14:15:21;25.20;48.50
47174;DHT22;36730;49.036;9.094;2024-02-28T14:17:47;25.20;49.00
47174;DHT22;36730;49.036;9.094;2024-02-28T14:20:13;25.20;48.30
47174;DHT22;36730;49.036;9.094;2024-02-28T14:22:39;25.20;48.60
47174;DHT22;36730;49.036;9.094;2024-02-28T14:25:14;25.20;49.60
47174;DHT22;36730;49.036;9.094;2024-02-28T14:27:41;25.20;48.80
47174;DHT22;36730;49.036;9.094;2024-02-28T14:30:07;25.20;48.30
47174;DHT22;36730;49.036;9.094;2024-02-28T14:32:34;25.20;49.40
47174;DHT22;36730;49.036;9.094;2024-02-28T14:35:01;25.20;49.20
47174;DHT22;36730;49.036;9.094;2024-02-28T14:37:26;25.30;49.10
47174;DHT22;36730;49.036;9.094;2024-02-28T14:39:53;25.20;49.60
47174;DHT22;36730;49.036;9.094;2024-02-28T14:42:18;25.20;49.20
47174;DHT22;36730;49.036;9.094;2024-02-28T14:44:44;25.30;48.60
47174;DHT22;36730;49.036;9.094;2024-02-28T14:47:09;25.20;49.60
47174;DHT22;36730;49.036;9.094;2024-02-28T14:49:35;25.30;48.80
47174;DHT22;36730;49.036;9.094;2024-02-28T14:52:03;25.30;49.10
47174;DHT22;36730;49.036;9.094;2024-02-28T14:54:28;25.30;48.20
47174;DHT22;36730;49.036;9.094;2024-02-28T14:56:54;25.30;48.10
47174;DHT22;36730;49.036;9.094;2024-02-28T14:59:19;25.30;48.70
47174;DHT22;36730;49.036;9.094;2024-02-28T15:01:45;25.20;48.40
47174;DHT22;36730;49.036;9.094;2024-02-28T15:04:10;25.20;48.20
47174;DHT22;36730;49.036;9.094;2024-02-28T15:06:39;25.20;49.30
47174;DHT22;36730;49.036;9.094;2024-02-28T15:09:04;25.20;47.80
47174;DHT22;36730;49.036;9.094;2024-02-28T15:11:30;25.20;48.80
47174;DHT22;36730;49.036;9.094;2024-02-28T15:13:56;25.20;48.40
47174;DHT22;36730;49.036;9.094;2024-02-28T15:16:21;25.20;47.60
47174;DHT22;36730;49.036;9.094;2024-02-28T15:18:47;25.10;47.00
47174;DHT22;36730;49.036;9.094;2024-02-28T15:21:12;25.10;48.30